createdAt,value
2019-05-03T00:00:17.785Z,8.10
2019-05-03T00:02:54.804Z,8.10
2019-05-03T00:05:35.048Z,7.80
2019-05-03T00:08:03.110Z,7.80
2019-05-03T00:10:29.127Z,7.90
2019-05-03T00:12:55.531Z,8.00
2019-05-03T00:15:42.911Z,8.10
2019-05-03T00:18:09.350Z,7.90
2019-05-03T00:20:35.370Z,8.10
2019-05-03T00:23:02.966Z,8.10
2019-05-03T00:25:29.197Z,7.90
2019-05-03T00:27:55.211Z,7.80
2019-05-03T00:30:22.524Z,7.80
2019-05-03T00:32:48.789Z,7.70
2019-05-03T00:35:16.715Z,7.40
2019-05-03T00:37:47.176Z,7.40
2019-05-03T00:40:24.413Z,7.60
2019-05-03T00:42:51.761Z,7.60
2019-05-03T00:45:17.931Z,7.60
2019-05-03T00:47:44.279Z,7.60
2019-05-03T00:50:12.023Z,7.40
2019-05-03T00:52:38.250Z,7.60
2019-05-03T00:55:15.687Z,7.50
2019-05-03T00:57:33.319Z,7.40
2019-05-03T00:59:59.340Z,7.30
2019-05-03T01:02:26.373Z,7.30
2019-05-03T01:04:52.990Z,7.50
2019-05-03T01:07:19.135Z,7.40
2019-05-03T01:09:45.173Z,7.40
2019-05-03T01:12:12.635Z,7.30
2019-05-03T01:14:42.085Z,7.30
2019-05-03T01:17:07.946Z,7.20
2019-05-03T01:19:34.325Z,7.20
2019-05-03T01:22:01.974Z,7.20
2019-05-03T01:24:28.142Z,7.20
2019-05-03T01:26:54.476Z,7.20
2019-05-03T01:29:22.672Z,7.30
2019-05-03T01:31:48.729Z,7.20
2019-05-03T01:34:14.785Z,7.30
2019-05-03T01:36:42.602Z,7.00
2019-05-03T01:39:08.755Z,7.00
2019-05-03T01:41:35.323Z,7.20
2019-05-03T01:44:01.946Z,7.00
2019-05-03T01:46:28.148Z,7.20
2019-05-03T01:49:04.963Z,7.10
2019-05-03T01:51:42.059Z,7.10
2019-05-03T01:54:08.224Z,6.80
2019-05-03T01:56:34.242Z,6.90
2019-05-03T01:59:05.563Z,6.90
2019-05-03T02:01:36.873Z,6.90
2019-05-03T02:04:05.167Z,7.10
2019-05-03T02:06:31.844Z,6.80
2019-05-03T02:08:58.007Z,7.00
2019-05-03T02:11:24.038Z,7.00
2019-05-03T02:13:52.096Z,6.90
2019-05-03T02:16:18.348Z,6.80
2019-05-03T02:18:44.369Z,6.80
2019-05-03T02:21:12.088Z,6.70
2019-05-03T02:23:38.348Z,6.80
2019-05-03T02:26:04.369Z,6.90
2019-05-03T02:28:30.383Z,6.90
2019-05-03T02:30:56.774Z,6.60
2019-05-03T02:33:23.345Z,6.70
2019-05-03T02:35:49.734Z,6.70
2019-05-03T02:38:15.813Z,6.50
2019-05-03T02:40:43.004Z,6.90
2019-05-03T02:43:27.700Z,6.90
2019-05-03T02:45:56.730Z,6.70
2019-05-03T02:48:41.740Z,6.50
2019-05-03T02:51:08.052Z,6.70
2019-05-03T02:53:36.042Z,6.50
2019-05-03T02:56:15.039Z,6.50
2019-05-03T02:58:29.963Z,6.70
2019-05-03T03:01:00.448Z,6.70
2019-05-03T03:03:26.983Z,6.70
2019-05-03T03:05:55.955Z,6.40
2019-05-03T03:08:22.155Z,6.70
2019-05-03T03:10:50.592Z,6.40
2019-05-03T03:13:16.604Z,6.50
2019-05-03T03:15:42.620Z,6.80
2019-05-03T03:18:08.660Z,6.70
2019-05-03T03:20:35.703Z,6.70
2019-05-03T03:23:02.017Z,6.50
2019-05-03T03:25:30.447Z,6.50
2019-05-03T03:27:59.775Z,6.40
2019-05-03T03:30:37.961Z,6.50
2019-05-03T03:33:08.763Z,6.50
2019-05-03T03:35:38.342Z,6.50
2019-05-03T03:38:05.597Z,6.60
2019-05-03T03:40:31.059Z,6.50
2019-05-03T03:42:57.078Z,6.60
2019-05-03T03:45:25.364Z,6.70
2019-05-03T03:47:51.699Z,6.50
2019-05-03T03:50:17.713Z,6.30
2019-05-03T03:52:45.245Z,6.40
2019-05-03T03:55:11.497Z,6.50
2019-05-03T03:57:37.506Z,6.60
2019-05-03T04:00:07.008Z,6.60
2019-05-03T04:02:35.358Z,6.50
2019-05-03T04:05:01.748Z,6.60
2019-05-03T04:07:28.086Z,6.40
2019-05-03T04:09:56.219Z,6.50
2019-05-03T04:12:22.030Z,6.70
2019-05-03T04:14:56.304Z,6.50
2019-05-03T04:17:26.363Z,6.70
2019-05-03T04:19:55.929Z,6.40
2019-05-03T04:22:22.212Z,6.70
2019-05-03T04:24:48.219Z,6.70
2019-05-03T04:27:22.214Z,6.60
2019-05-03T04:29:45.175Z,6.70
2019-05-03T04:32:10.218Z,6.70
2019-05-03T04:34:36.436Z,6.90
2019-05-03T04:37:05.317Z,6.70
2019-05-03T04:39:31.279Z,6.50
2019-05-03T04:41:57.438Z,6.60
2019-05-03T04:44:25.845Z,7.00
2019-05-03T04:46:54.866Z,7.00
2019-05-03T04:49:19.331Z,7.00
2019-05-03T04:51:46.588Z,7.10
2019-05-03T04:54:31.446Z,7.10
2019-05-03T04:56:57.475Z,6.90
2019-05-03T04:59:25.452Z,6.90
2019-05-03T05:01:51.517Z,7.00
2019-05-03T05:04:19.137Z,7.20
2019-05-03T05:06:45.181Z,7.10
2019-05-03T05:09:11.307Z,7.20
2019-05-03T05:11:37.336Z,7.30
2019-05-03T05:14:03.361Z,7.20
2019-05-03T05:16:29.481Z,7.40
2019-05-03T05:18:57.459Z,7.10
2019-05-03T05:21:25.458Z,7.40
2019-05-03T05:23:59.151Z,7.30
2019-05-03T05:26:27.070Z,7.40
2019-05-03T05:29:10.479Z,7.50
2019-05-03T05:31:36.499Z,7.40
2019-05-03T05:34:02.799Z,7.60
2019-05-03T05:36:29.381Z,7.50
2019-05-03T05:38:55.448Z,7.60
2019-05-03T05:41:21.451Z,7.60
2019-05-03T05:43:47.533Z,7.60
2019-05-03T05:46:14.666Z,7.60
2019-05-03T05:48:45.912Z,7.90
2019-05-03T05:51:13.569Z,8.00
2019-05-03T05:53:39.904Z,8.10
2019-05-03T05:56:19.833Z,7.90
2019-05-03T05:59:05.914Z,7.90
2019-05-03T06:01:35.366Z,8.00
2019-05-03T06:04:01.622Z,8.00
2019-05-03T06:06:34.839Z,8.00
2019-05-03T06:09:06.797Z,8.20
2019-05-03T06:11:45.026Z,8.30
2019-05-03T06:14:15.193Z,8.40
2019-05-03T06:16:59.919Z,8.50
2019-05-03T06:19:27.875Z,8.40
2019-05-03T06:22:10.872Z,8.40
2019-05-03T06:24:41.962Z,8.80
2019-05-03T06:27:09.883Z,8.70
2019-05-03T06:29:35.903Z,8.90
2019-05-03T06:32:05.402Z,9.10
2019-05-03T06:34:31.559Z,9.00
2019-05-03T06:36:59.759Z,9.00
2019-05-03T06:39:26.243Z,9.10
2019-05-03T06:41:57.329Z,9.30
2019-05-03T06:44:28.691Z,9.30
2019-05-03T06:46:55.520Z,9.20
2019-05-03T06:49:25.560Z,9.20
2019-05-03T06:51:56.538Z,9.30
2019-05-03T06:54:26.703Z,9.60
2019-05-03T06:56:50.602Z,10.00
2019-05-03T06:59:36.049Z,10.40
2019-05-03T07:02:10.213Z,10.60
2019-05-03T07:04:40.667Z,10.40
2019-05-03T07:07:30.161Z,10.00
2019-05-03T07:09:58.109Z,9.80
2019-05-03T07:12:25.002Z,9.80
2019-05-03T07:14:51.269Z,9.80
2019-05-03T07:17:17.304Z,9.90
2019-05-03T07:19:43.348Z,10.10
2019-05-03T07:22:09.351Z,10.50
2019-05-03T07:24:40.591Z,10.90
2019-05-03T07:27:05.406Z,10.90
2019-05-03T07:29:31.669Z,10.80
2019-05-03T07:31:57.856Z,10.90
2019-05-03T07:34:24.737Z,11.10
2019-05-03T07:36:51.013Z,11.00
2019-05-03T07:39:17.089Z,10.80
2019-05-03T07:41:44.738Z,10.90
2019-05-03T07:44:10.931Z,11.10
2019-05-03T07:46:36.938Z,11.30
2019-05-03T07:49:04.891Z,11.20
2019-05-03T07:51:31.006Z,11.10
2019-05-03T07:53:57.027Z,10.90
2019-05-03T07:56:30.800Z,10.70
2019-05-03T07:59:06.203Z,10.70
2019-05-03T08:01:35.397Z,11.00
2019-05-03T08:04:05.273Z,10.90
2019-05-03T08:06:31.321Z,11.10
2019-05-03T08:08:57.841Z,11.30
2019-05-03T08:11:24.869Z,11.80
2019-05-03T08:13:51.235Z,11.80
2019-05-03T08:16:17.762Z,11.70
2019-05-03T08:18:45.727Z,11.70
2019-05-03T08:21:11.738Z,11.80
2019-05-03T08:23:37.756Z,11.60
2019-05-03T08:26:05.876Z,11.70
2019-05-03T08:28:36.798Z,11.80
2019-05-03T08:31:20.419Z,11.90
2019-05-03T08:33:56.188Z,12.10
2019-05-03T08:36:22.186Z,12.30
2019-05-03T08:38:48.206Z,12.20
2019-05-03T08:41:16.192Z,12.00
2019-05-03T08:43:44.678Z,11.90
2019-05-03T08:46:25.178Z,11.90
2019-05-03T08:48:56.079Z,11.90
2019-05-03T08:51:24.959Z,12.10
2019-05-03T08:54:01.337Z,12.20
2019-05-03T08:56:27.347Z,12.00
2019-05-03T08:59:07.180Z,12.00
2019-05-03T09:01:42.269Z,11.90
2019-05-03T09:04:11.934Z,11.80
2019-05-03T09:06:37.938Z,12.10
2019-05-03T09:09:06.937Z,12.50
2019-05-03T09:11:34.785Z,12.80
2019-05-03T09:14:04.888Z,12.80
2019-05-03T09:16:32.971Z,12.70
2019-05-03T09:18:59.016Z,12.30
2019-05-03T09:21:25.643Z,11.90
2019-05-03T09:23:52.107Z,11.20
2019-05-03T09:26:18.158Z,10.70
2019-05-03T09:28:45.387Z,10.60
2019-05-03T09:31:11.603Z,10.60
2019-05-03T09:33:37.635Z,10.60
2019-05-03T09:36:05.335Z,10.40
2019-05-03T09:38:32.375Z,10.70
2019-05-03T09:40:58.427Z,11.10
2019-05-03T09:43:25.068Z,11.40
2019-05-03T09:45:51.404Z,11.50
2019-05-03T09:48:17.443Z,11.50
2019-05-03T09:50:45.233Z,11.60
2019-05-03T09:53:12.208Z,11.90
2019-05-03T09:55:40.146Z,12.20
2019-05-03T09:58:06.535Z,12.40
2019-05-03T10:00:33.142Z,12.80
2019-05-03T10:02:59.151Z,13.00
2019-05-03T10:05:25.680Z,13.10
2019-05-03T10:07:52.301Z,13.40
2019-05-03T10:10:18.319Z,13.70
2019-05-03T10:12:44.835Z,13.60
2019-05-03T10:15:10.918Z,13.40
2019-05-03T10:17:45.797Z,13.10
2019-05-03T10:20:15.327Z,12.90
2019-05-03T10:22:42.142Z,12.50
2019-05-03T10:25:08.143Z,12.30
2019-05-03T10:27:45.741Z,12.60
2019-05-03T10:30:18.249Z,13.10
2019-05-03T10:33:08.139Z,13.60
2019-05-03T10:35:35.352Z,13.50
2019-05-03T10:38:01.604Z,13.00
2019-05-03T10:40:27.637Z,12.60
2019-05-03T10:43:13.627Z,12.60
2019-05-03T10:45:39.665Z,12.80
2019-05-03T10:48:05.697Z,13.40
2019-05-03T10:50:31.811Z,14.00
2019-05-03T10:52:59.750Z,14.60
2019-05-03T10:55:26.099Z,14.80
2019-05-03T10:58:06.377Z,14.90
2019-05-03T11:00:46.323Z,15.40
2019-05-03T11:03:02.354Z,16.30
2019-05-03T11:05:28.391Z,17.60
2019-05-03T11:07:55.603Z,18.20
2019-05-03T11:10:21.843Z,18.10
2019-05-03T11:12:47.951Z,18.00
2019-05-03T11:15:15.038Z,17.70
2019-05-03T11:17:41.217Z,17.70
2019-05-03T11:20:07.336Z,17.30
2019-05-03T11:22:34.956Z,16.70
2019-05-03T11:25:01.216Z,15.80
2019-05-03T11:27:29.479Z,15.00
2019-05-03T11:29:55.678Z,14.70
2019-05-03T11:32:25.499Z,14.60
2019-05-03T11:34:56.309Z,14.70
2019-05-03T11:37:40.887Z,14.80
2019-05-03T11:40:06.944Z,14.30
2019-05-03T11:42:35.185Z,14.10
2019-05-03T11:45:00.925Z,14.30
2019-05-03T11:47:27.766Z,14.90
2019-05-03T11:49:54.688Z,15.50
2019-05-03T11:52:20.870Z,15.30
2019-05-03T11:54:47.235Z,14.60
2019-05-03T11:57:21.019Z,13.90
2019-05-03T11:59:47.139Z,13.30
2019-05-03T12:02:25.449Z,12.70
2019-05-03T12:04:51.634Z,12.40
2019-05-03T12:07:39.852Z,12.30
2019-05-03T12:10:01.596Z,12.50
2019-05-03T12:12:47.995Z,14.10
2019-05-03T12:15:15.120Z,15.30
2019-05-03T12:17:54.158Z,15.70
2019-05-03T12:20:18.092Z,15.40
2019-05-03T12:22:43.140Z,15.80
2019-05-03T12:25:10.691Z,16.40
2019-05-03T12:27:37.391Z,17.20
2019-05-03T12:30:07.050Z,18.10
2019-05-03T12:32:34.550Z,18.00
2019-05-03T12:35:00.787Z,16.50
2019-05-03T12:37:26.799Z,15.10
2019-05-03T12:39:54.752Z,14.50
2019-05-03T12:42:21.108Z,14.50
2019-05-03T12:44:47.188Z,14.70
2019-05-03T12:47:14.627Z,14.50
2019-05-03T12:49:49.414Z,14.10
2019-05-03T12:52:16.581Z,13.50
2019-05-03T12:54:43.185Z,13.40
2019-05-03T12:57:09.391Z,14.00
2019-05-03T12:59:37.578Z,15.60
2019-05-03T13:02:18.069Z,17.50
2019-05-03T13:04:45.598Z,19.00
2019-05-03T13:07:34.663Z,20.80
2019-05-03T13:10:00.552Z,22.60
2019-05-03T13:12:28.053Z,22.50
2019-05-03T13:14:54.097Z,22.90
2019-05-03T13:17:35.712Z,24.00
2019-05-03T13:20:05.022Z,23.50
2019-05-03T13:22:31.490Z,23.30
2019-05-03T13:24:57.516Z,22.50
2019-05-03T13:27:25.290Z,20.90
2019-05-03T13:29:51.655Z,20.00
2019-05-03T13:32:17.707Z,19.90
2019-05-03T13:34:44.744Z,20.70
2019-05-03T13:37:10.965Z,21.20
2019-05-03T13:39:37.006Z,22.00
2019-05-03T13:42:05.518Z,21.70
2019-05-03T13:44:31.549Z,21.80
2019-05-03T13:46:57.587Z,20.40
2019-05-03T13:49:29.721Z,18.90
2019-05-03T13:51:56.175Z,17.50
2019-05-03T13:54:22.494Z,16.20
2019-05-03T13:56:48.533Z,15.20
2019-05-03T13:59:19.768Z,14.30
2019-05-03T14:01:42.508Z,13.70
2019-05-03T14:04:12.211Z,13.30
2019-05-03T14:06:38.224Z,13.10
2019-05-03T14:09:05.330Z,13.00
2019-05-03T14:11:35.377Z,13.00
2019-05-03T14:14:01.367Z,13.30
2019-05-03T14:16:35.577Z,13.60
2019-05-03T14:19:05.212Z,13.80
2019-05-03T14:21:40.284Z,13.80
2019-05-03T14:24:27.355Z,13.50
2019-05-03T14:26:45.160Z,14.30
2019-05-03T14:29:14.628Z,15.80
2019-05-03T14:31:41.027Z,17.80
2019-05-03T14:34:07.638Z,18.90
2019-05-03T14:36:35.642Z,19.30
2019-05-03T14:39:01.620Z,20.10
2019-05-03T14:41:27.679Z,21.30
2019-05-03T14:43:55.674Z,21.30
2019-05-03T14:46:30.016Z,20.40
2019-05-03T14:48:49.691Z,20.40
2019-05-03T14:51:15.695Z,19.60
2019-05-03T14:53:42.165Z,20.40
2019-05-03T14:56:26.838Z,22.50
2019-05-03T14:59:06.923Z,22.90
2019-05-03T15:01:37.747Z,23.00
2019-05-03T15:04:05.868Z,21.40
2019-05-03T15:06:31.713Z,20.40
2019-05-03T15:08:57.811Z,18.60
2019-05-03T15:11:23.827Z,18.30
2019-05-03T15:13:49.847Z,18.10
2019-05-03T15:16:15.928Z,17.40
2019-05-03T15:18:41.955Z,18.40
2019-05-03T15:21:07.983Z,19.00
2019-05-03T15:23:34.901Z,18.40
2019-05-03T15:26:01.015Z,17.60
2019-05-03T15:28:27.080Z,17.00
2019-05-03T15:30:55.118Z,16.50
2019-05-03T15:33:21.208Z,16.70
2019-05-03T15:35:47.249Z,16.80
2019-05-03T15:38:14.478Z,17.00
2019-05-03T15:40:46.304Z,16.80
2019-05-03T15:43:28.989Z,17.70
2019-05-03T15:46:17.828Z,19.20
2019-05-03T15:48:52.619Z,19.30
2019-05-03T15:51:18.703Z,18.50
2019-05-03T15:53:44.723Z,18.60
2019-05-03T15:56:10.783Z,19.60
2019-05-03T15:58:36.861Z,19.70
2019-05-03T16:01:04.707Z,19.00
2019-05-03T16:03:31.293Z,18.10
2019-05-03T16:05:57.354Z,18.00
2019-05-03T16:08:24.826Z,18.10
2019-05-03T16:10:51.060Z,17.90
2019-05-03T16:13:17.096Z,17.30
2019-05-03T16:15:44.567Z,16.50
2019-05-03T16:18:10.836Z,15.70
2019-05-03T16:20:39.405Z,15.00
2019-05-03T16:23:05.023Z,14.80
2019-05-03T16:25:35.496Z,14.30
2019-05-03T16:28:09.098Z,13.70
2019-05-03T16:30:39.939Z,13.40
2019-05-03T16:33:05.994Z,13.40
2019-05-03T16:35:32.076Z,13.40
2019-05-03T16:38:03.042Z,13.10
2019-05-03T16:40:41.677Z,12.90
2019-05-03T16:43:13.626Z,12.30
2019-05-03T16:45:39.737Z,12.20
2019-05-03T16:48:05.771Z,12.30
2019-05-03T16:50:31.951Z,12.40
2019-05-03T16:52:58.047Z,12.60
2019-05-03T16:55:27.420Z,12.40
2019-05-03T16:57:54.909Z,12.50
2019-05-03T17:00:21.134Z,12.40
2019-05-03T17:02:58.435Z,12.20
2019-05-03T17:05:50.745Z,12.00
2019-05-03T17:08:25.084Z,11.70
2019-05-03T17:11:02.184Z,11.70
2019-05-03T17:13:30.966Z,11.80
2019-05-03T17:15:57.228Z,11.90
2019-05-03T17:18:24.652Z,11.90
2019-05-03T17:20:50.869Z,11.80
2019-05-03T17:23:19.641Z,11.50
2019-05-03T17:25:45.684Z,11.20
2019-05-03T17:28:12.076Z,11.10
2019-05-03T17:30:38.094Z,11.00
2019-05-03T17:33:04.535Z,10.80
2019-05-03T17:35:30.760Z,10.60
2019-05-03T17:37:56.814Z,10.50
2019-05-03T17:40:34.855Z,10.40
2019-05-03T17:43:14.858Z,10.30
2019-05-03T17:46:04.406Z,10.10
2019-05-03T17:48:35.300Z,10.10
2019-05-03T17:51:01.320Z,10.00
2019-05-03T17:53:41.489Z,9.90
2019-05-03T17:56:17.749Z,9.60
2019-05-03T17:58:47.543Z,9.50
2019-05-03T18:01:35.487Z,9.50
2019-05-03T18:04:08.831Z,9.40
2019-05-03T18:06:50.219Z,9.40
2019-05-03T18:09:27.509Z,9.30
2019-05-03T18:11:55.502Z,9.20
2019-05-03T18:14:25.071Z,9.20
2019-05-03T18:16:57.984Z,9.30
2019-05-03T18:19:24.010Z,9.00
2019-05-03T18:21:50.125Z,9.00
2019-05-03T18:24:16.312Z,8.90
2019-05-03T18:26:42.323Z,8.90
2019-05-03T18:29:08.822Z,8.80
2019-05-03T18:31:34.861Z,8.80
2019-05-03T18:34:00.889Z,8.70
2019-05-03T18:36:26.891Z,8.60
2019-05-03T18:38:58.112Z,8.60
2019-05-03T18:41:26.331Z,8.60
2019-05-03T18:43:57.221Z,8.40
2019-05-03T18:46:27.811Z,8.60
2019-05-03T18:48:55.194Z,8.50
2019-05-03T18:51:21.394Z,8.40
2019-05-03T18:53:47.800Z,8.70
2019-05-03T18:56:14.760Z,8.60
2019-05-03T18:58:41.099Z,8.40
2019-05-03T19:01:07.530Z,8.10
2019-05-03T19:03:34.478Z,8.20
2019-05-03T19:06:08.719Z,8.20
2019-05-03T19:08:42.357Z,8.10
2019-05-03T19:11:26.737Z,8.10
2019-05-03T19:14:06.717Z,7.90
2019-05-03T19:16:45.406Z,7.90
2019-05-03T19:19:13.311Z,7.30
2019-05-03T19:21:39.323Z,7.50
2019-05-03T19:24:05.353Z,7.60
2019-05-03T19:26:31.366Z,7.50
2019-05-03T19:28:57.387Z,7.30
2019-05-03T19:31:25.258Z,7.40
2019-05-03T19:33:51.328Z,7.40
2019-05-03T19:36:17.399Z,7.30
2019-05-03T19:38:44.195Z,7.20
2019-05-03T19:41:10.534Z,7.20
2019-05-03T19:43:36.550Z,7.50
2019-05-03T19:46:04.614Z,7.40
2019-05-03T19:48:30.588Z,7.40
2019-05-03T19:50:56.599Z,7.60
2019-05-03T19:53:27.308Z,7.20
2019-05-03T19:55:55.211Z,7.60
2019-05-03T19:58:21.281Z,7.60
2019-05-03T20:00:49.304Z,7.50
2019-05-03T20:03:29.275Z,7.60
2019-05-03T20:05:57.227Z,7.60
2019-05-03T20:08:25.150Z,7.70
2019-05-03T20:10:54.663Z,7.70
2019-05-03T20:13:31.918Z,7.70
2019-05-03T20:15:48.895Z,7.90
2019-05-03T20:18:15.814Z,7.80
2019-05-03T20:24:33.810Z,7.70
2019-05-03T20:27:00.305Z,7.70
2019-05-03T20:29:26.363Z,7.50
2019-05-03T20:31:52.799Z,7.40
2019-05-03T20:34:18.844Z,7.50
2019-05-03T20:36:45.389Z,7.50
2019-05-03T20:39:11.595Z,7.30
2019-05-03T20:41:37.619Z,7.50
2019-05-03T20:44:05.586Z,7.50
2019-05-03T20:46:33.619Z,7.30
2019-05-03T20:49:01.576Z,7.10
2019-05-03T20:51:27.655Z,7.20
2019-05-03T20:53:55.273Z,7.20
2019-05-03T20:56:22.026Z,7.50
2019-05-03T20:58:48.058Z,7.10
2019-05-03T21:01:15.461Z,7.00
2019-05-03T21:03:41.531Z,6.50
2019-05-03T21:06:07.551Z,6.30
2019-05-03T21:08:34.800Z,6.20
2019-05-03T21:11:00.987Z,6.30
2019-05-03T21:13:39.155Z,6.00
2019-05-03T21:15:57.162Z,6.20
2019-05-03T21:18:34.525Z,6.00
2019-05-03T21:21:02.643Z,6.20
2019-05-03T21:23:30.567Z,6.30
2019-05-03T21:26:12.468Z,6.30
2019-05-03T21:28:34.475Z,6.30
2019-05-03T21:31:00.511Z,6.30
2019-05-03T21:33:27.915Z,6.20
2019-05-03T21:35:55.572Z,6.30
2019-05-03T21:38:21.767Z,6.10
2019-05-03T21:40:47.892Z,6.40
2019-05-03T21:43:15.273Z,6.40
2019-05-03T21:45:45.199Z,6.30
2019-05-03T21:48:14.629Z,6.10
2019-05-03T21:50:40.919Z,6.30
2019-05-03T21:53:06.930Z,6.10
2019-05-03T21:55:36.910Z,6.00
2019-05-03T21:58:04.680Z,5.70
2019-05-03T22:00:36.418Z,5.80
2019-05-03T22:03:05.089Z,5.90
2019-05-03T22:05:33.041Z,5.80
2019-05-03T22:07:59.204Z,6.00
2019-05-03T22:10:25.582Z,5.80
2019-05-03T22:12:51.791Z,5.60
2019-05-03T22:15:22.486Z,5.70
2019-05-03T22:17:53.229Z,5.70
2019-05-03T22:20:27.055Z,5.70
2019-05-03T22:22:55.528Z,5.60
2019-05-03T22:25:24.423Z,5.70
2019-05-03T22:27:50.575Z,5.70
2019-05-03T22:30:16.601Z,5.70
2019-05-03T22:32:44.410Z,5.70
2019-05-03T22:35:11.053Z,5.70
2019-05-03T22:37:37.322Z,5.70
2019-05-03T22:40:09.407Z,5.80
2019-05-03T22:42:35.427Z,5.80
2019-05-03T22:45:01.451Z,5.80
2019-05-03T22:47:28.473Z,5.90
2019-05-03T22:49:54.856Z,5.90
2019-05-03T22:52:22.488Z,5.70
2019-05-03T22:54:49.136Z,5.60
2019-05-03T22:57:15.399Z,5.60
2019-05-03T22:59:41.519Z,5.80
2019-05-03T23:02:07.772Z,5.60
2019-05-03T23:04:35.583Z,5.60
2019-05-03T23:07:09.492Z,5.60
2019-05-03T23:09:35.600Z,5.60
2019-05-03T23:12:05.523Z,5.70
2019-05-03T23:14:31.814Z,5.40
2019-05-03T23:16:57.900Z,5.50
2019-05-03T23:19:23.921Z,5.50
2019-05-03T23:21:58.662Z,5.40
2019-05-03T23:24:24.831Z,5.40
2019-05-03T23:26:50.934Z,5.50
2019-05-03T23:29:16.970Z,5.50
2019-05-03T23:31:49.455Z,5.60
2019-05-03T23:34:15.478Z,5.70
2019-05-03T23:36:42.021Z,5.70
2019-05-03T23:39:08.569Z,5.70
2019-05-03T23:41:35.177Z,5.70
2019-05-03T23:44:01.407Z,5.90
2019-05-03T23:46:29.434Z,6.00
2019-05-03T23:48:55.503Z,5.80
2019-05-03T23:51:39.739Z,6.00
2019-05-03T23:54:05.955Z,5.90
2019-05-03T23:56:32.260Z,5.90
2019-05-03T23:58:58.591Z,6.00
